X  Schließen METAR Luftfahrt Wetterdaten     YMML Melbourne International Airport
Temperatur
18°C Temperatur
9°C Taupunkt
56% Feuchtigkeit



Wind
12 MPS
19 KM/S
5 M/S
10 KTS



130°
SO
Aktuelle Wetterlage

Meistens bewölkt Meistens bewölkt
Luftdruck 1010.92 (hPa) - 29.85 (inHg)
Sichtweite 6.2 (Meile) - 10 (Km)
Flughafen
Flughafen Code YMML

Position : Melbourne International Airport
Entfernung: 18 (mi)

Metar:
YMML 060000Z 13010KT 9999 BKN030 BKN050 18/09 Q1011

Zeit: 06-12-2022 11:00 AEDT